PWSweather.com
Personal Weather Stations
Station Observations
TENMILE2
Watts Bar Lake, Ten Mile, TN 37880

Watts Bar LakeTen Mile, TN 37880

Lat: 35.686, Lon: -84.7068

Elevation: 767

Station Type: Davis VP2

http://www.wattsbarweather.net

High Low Average
Temperature 88.3°F31.3°C 65.3°F18.5°C 74.7°F23.7°C
Dew Point 74.5°F23.6°C 64.1°F17.8°C 68.9°F20.5°C
Winds 6.8 mph 10.9 kmh Calm Calm 1.0 mph SE1.6 kmh SE
Wind Gusts 13.8 mph22.2 kmh -- 3.0 mph4.8 kmh
Humidity 97% 52% 84%
Pressure 30.12 in1020.0 mb 29.99 in1015.6 mb -
Precipitation 0.07 in1.8 mm - -
Hour Temp Dew Point Humidity Winds Wind Gusts Pressure Precip Precip Rate Daily Precip Total
12:00 AM 67.5°F19.7°C 65.7°F18.7°C 94% Calm Calm -- 30.04 in1017.3 mb 0.00 in0.0 mm 0.00 in0.0 mm 0.00 in0.0 mm
12:05 AM 67.4°F19.7°C 65.6°F18.7°C 94% Calm Calm -- 30.04 in1017.3 mb 0.00 in0.0 mm 0.00 in0.0 mm 0.00 in0.0 mm
12:10 AM 67.5°F19.7°C 66.0°F18.9°C 95% Calm Calm 1.3 mph2.1 kmh 30.04 in1017.3 mb 0.00 in0.0 mm 0.00 in0.0 mm 0.00 in0.0 mm
12:15 AM 67.5°F19.7°C 66.0°F18.9°C 95% Calm Calm 1.3 mph2.1 kmh 30.04 in1017.3 mb 0.00 in0.0 mm 0.00 in0.0 mm 0.00 in0.0 mm
12:20 AM 67.5°F19.7°C 66.0°F18.9°C 95% Calm Calm 1.0 mph1.6 kmh 30.04 in1017.3 mb 0.00 in0.0 mm 0.00 in0.0 mm 0.00 in0.0 mm
12:25 AM 67.6°F19.8°C 66.1°F18.9°C 95% 1.3 mph SW2.1 kmh SW 1.3 mph2.1 kmh 30.03 in1016.9 mb 0.03 in0.8 mm 0.36 in9.1 mm 0.03 in0.8 mm
12:30 AM 67.9°F19.9°C 66.4°F19.1°C 95% 1.5 mph NE2.4 kmh NE 3.0 mph4.8 kmh 30.03 in1016.9 mb 0.04 in1.0 mm 0.12 in3.0 mm 0.04 in1.0 mm
12:35 AM 68.1°F20.1°C 66.6°F19.2°C 95% 1.3 mph NE2.1 kmh NE 3.0 mph4.8 kmh 30.04 in1017.3 mb 0.04 in1.0 mm 0.00 in0.0 mm 0.04 in1.0 mm
12:40 AM 68.1°F20.1°C 66.6°F19.2°C 95% Calm Calm 3.0 mph4.8 kmh 30.04 in1017.3 mb 0.04 in1.0 mm 0.00 in0.0 mm 0.04 in1.0 mm
12:45 AM 68.2°F20.1°C 66.7°F19.3°C 95% Calm Calm 3.0 mph4.8 kmh 30.04 in1017.3 mb 0.05 in1.3 mm 0.12 in3.0 mm 0.05 in1.3 mm
12:50 AM 68.3°F20.2°C 66.8°F19.3°C 95% Calm Calm 2.0 mph3.2 kmh 30.04 in1017.3 mb 0.05 in1.3 mm 0.00 in0.0 mm 0.05 in1.3 mm
12:55 AM 68.3°F20.2°C 66.8°F19.3°C 95% Calm Calm 2.0 mph3.2 kmh 30.05 in1017.6 mb 0.05 in1.3 mm 0.00 in0.0 mm 0.05 in1.3 mm
01:00 AM 68.4°F20.2°C 66.9°F19.4°C 95% 1.3 mph SE2.1 kmh SE 1.3 mph2.1 kmh 30.05 in1017.6 mb 0.05 in1.3 mm 0.00 in0.0 mm 0.05 in1.3 mm
01:05 AM 68.5°F20.3°C 67.3°F19.6°C 96% 1.3 mph NNW2.1 kmh NNW 1.3 mph2.1 kmh 30.06 in1017.9 mb 0.05 in1.3 mm 0.00 in0.0 mm 0.05 in1.3 mm
01:10 AM 68.5°F20.3°C 67.0°F19.4°C 95% 1.3 mph WSW2.1 kmh WSW 1.3 mph2.1 kmh 30.05 in1017.6 mb 0.06 in1.5 mm 0.12 in3.0 mm 0.06 in1.5 mm
01:15 AM 68.5°F20.3°C 67.0°F19.4°C 95% Calm Calm 1.3 mph2.1 kmh 30.05 in1017.6 mb 0.06 in1.5 mm 0.00 in0.0 mm 0.06 in1.5 mm
01:20 AM 68.7°F20.4°C 67.5°F19.7°C 96% Calm Calm 1.3 mph2.1 kmh 30.04 in1017.3 mb 0.06 in1.5 mm 0.00 in0.0 mm 0.06 in1.5 mm
01:25 AM 68.8°F20.4°C 67.6°F19.8°C 96% Calm Calm 1.3 mph2.1 kmh 30.04 in1017.3 mb 0.04 in1.0 mm 0.00 in0.0 mm 0.07 in1.8 mm
01:30 AM 68.8°F20.4°C 67.6°F19.8°C 96% Calm Calm 1.3 mph2.1 kmh 30.04 in1017.3 mb 0.03 in0.8 mm 0.00 in0.0 mm 0.07 in1.8 mm
01:35 AM 68.8°F20.4°C 67.3°F19.6°C 95% Calm Calm 1.0 mph1.6 kmh 30.03 in1016.9 mb 0.03 in0.8 mm 0.00 in0.0 mm 0.07 in1.8 mm
01:40 AM 68.8°F20.4°C 67.6°F19.8°C 96% Calm Calm 1.3 mph2.1 kmh 30.03 in1016.9 mb 0.03 in0.8 mm 0.00 in0.0 mm 0.07 in1.8 mm
01:45 AM 68.8°F20.4°C 67.6°F19.8°C 96% Calm Calm 1.3 mph2.1 kmh 30.03 in1016.9 mb 0.02 in0.5 mm 0.00 in0.0 mm 0.07 in1.8 mm
01:50 AM 68.8°F20.4°C 67.6°F19.8°C 96% Calm Calm 1.0 mph1.6 kmh 30.03 in1016.9 mb 0.02 in0.5 mm 0.00 in0.0 mm 0.07 in1.8 mm
01:55 AM 68.7°F20.4°C 67.5°F19.7°C 96% Calm Calm 1.0 mph1.6 kmh 30.04 in1017.3 mb 0.02 in0.5 mm 0.00 in0.0 mm 0.07 in1.8 mm
02:01 AM 68.8°F20.4°C 67.6°F19.8°C 96% Calm Calm -- 30.03 in1016.9 mb 0.02 in0.5 mm 0.00 in0.0 mm 0.07 in1.8 mm
02:06 AM 68.6°F20.3°C 67.1°F19.5°C 95% Calm Calm -- 30.04 in1017.3 mb 0.02 in0.5 mm 0.00 in0.0 mm 0.07 in1.8 mm
02:10 AM 68.4°F20.2°C 66.9°F19.4°C 95% Calm Calm -- 30.04 in1017.3 mb 0.01 in0.3 mm 0.00 in0.0 mm 0.07 in1.8 mm
02:16 AM 68.3°F20.2°C 66.8°F19.3°C 95% Calm Calm -- 30.04 in1017.3 mb 0.01 in0.3 mm 0.00 in0.0 mm 0.07 in1.8 mm
02:21 AM 68.2°F20.1°C 67.0°F19.4°C 96% Calm Calm -- 30.04 in1017.3 mb 0.01 in0.3 mm 0.00 in0.0 mm 0.07 in1.8 mm
02:26 AM 68.1°F20.1°C 66.6°F19.2°C 95% Calm Calm -- 30.04 in1017.3 mb 0.00 in0.0 mm 0.00 in0.0 mm 0.07 in1.8 mm
02:31 AM 68.0°F20.0°C 66.5°F19.2°C 95% Calm Calm -- 30.04 in1017.3 mb 0.00 in0.0 mm 0.00 in0.0 mm 0.07 in1.8 mm
02:36 AM 67.9°F19.9°C 66.7°F19.3°C 96% Calm Calm -- 30.04 in1017.3 mb 0.00 in0.0 mm 0.00 in0.0 mm 0.07 in1.8 mm
02:41 AM 67.9°F19.9°C 66.7°F19.3°C 96% Calm Calm -- 30.04 in1017.3 mb 0.00 in0.0 mm 0.00 in0.0 mm 0.07 in1.8 mm
02:46 AM 67.8°F19.9°C 66.6°F19.2°C 96% Calm Calm -- 30.04 in1017.3 mb 0.00 in0.0 mm 0.00 in0.0 mm 0.07 in1.8 mm
02:51 AM 67.7°F19.8°C 66.5°F19.2°C 96% Calm Calm -- 30.04 in1017.3 mb 0.00 in0.0 mm 0.00 in0.0 mm 0.07 in1.8 mm
02:56 AM 67.6°F19.8°C 66.4°F19.1°C 96% Calm Calm -- 30.04 in1017.3 mb 0.00 in0.0 mm 0.00 in0.0 mm 0.07 in1.8 mm
03:01 AM 67.5°F19.7°C 66.3°F19.1°C 96% Calm Calm -- 30.04 in1017.3 mb 0.00 in0.0 mm 0.00 in0.0 mm 0.07 in1.8 mm
03:06 AM 67.4°F19.7°C 66.2°F19.0°C 96% Calm Calm -- 30.04 in1017.3 mb 0.00 in0.0 mm 0.00 in0.0 mm 0.07 in1.8 mm
03:11 AM 67.4°F19.7°C 66.2°F19.0°C 96% Calm Calm -- 30.04 in1017.3 mb 0.00 in0.0 mm 0.00 in0.0 mm 0.07 in1.8 mm
03:16 AM 67.3°F19.6°C 66.1°F18.9°C 96% Calm Calm -- 30.04 in1017.3 mb 0.00 in0.0 mm 0.00 in0.0 mm 0.07 in1.8 mm
03:21 AM 67.3°F19.6°C 66.1°F18.9°C 96% Calm Calm -- 30.04 in1017.3 mb 0.00 in0.0 mm 0.00 in0.0 mm 0.07 in1.8 mm
03:26 AM 67.1°F19.5°C 65.9°F18.8°C 96% Calm Calm -- 30.04 in1017.3 mb 0.00 in0.0 mm 0.00 in0.0 mm 0.07 in1.8 mm
03:31 AM 67.0°F19.4°C 65.8°F18.8°C 96% Calm Calm -- 30.04 in1017.3 mb 0.00 in0.0 mm 0.00 in0.0 mm 0.07 in1.8 mm
03:36 AM 67.0°F19.4°C 65.8°F18.8°C 96% Calm Calm 1.3 mph2.1 kmh 30.05 in1017.6 mb 0.00 in0.0 mm 0.00 in0.0 mm 0.07 in1.8 mm
03:41 AM 66.9°F19.4°C 65.7°F18.7°C 96% Calm Calm 1.3 mph2.1 kmh 30.05 in1017.6 mb 0.00 in0.0 mm 0.00 in0.0 mm 0.07 in1.8 mm
03:46 AM 66.9°F19.4°C 65.7°F18.7°C 96% Calm Calm 1.0 mph1.6 kmh 30.05 in1017.6 mb 0.00 in0.0 mm 0.00 in0.0 mm 0.07 in1.8 mm
03:51 AM 66.7°F19.3°C 65.5°F18.6°C 96% Calm Calm 1.0 mph1.6 kmh 30.05 in1017.6 mb 0.00 in0.0 mm 0.00 in0.0 mm 0.07 in1.8 mm
03:56 AM 66.6°F19.2°C 65.4°F18.6°C 96% Calm Calm -- 30.05 in1017.6 mb 0.00 in0.0 mm 0.00 in0.0 mm 0.07 in1.8 mm
04:01 AM 66.5°F19.2°C 65.3°F18.5°C 96% Calm Calm -- 30.06 in1017.9 mb 0.00 in0.0 mm 0.00 in0.0 mm 0.07 in1.8 mm
04:06 AM 66.4°F19.1°C 65.2°F18.4°C 96% Calm Calm -- 30.06 in1017.9 mb 0.00 in0.0 mm 0.00 in0.0 mm 0.07 in1.8 mm
04:11 AM 66.3°F19.1°C 65.1°F18.4°C 96% Calm Calm -- 30.06 in1017.9 mb 0.00 in0.0 mm 0.00 in0.0 mm 0.07 in1.8 mm
04:16 AM 66.2°F19.0°C 65.0°F18.3°C 96% Calm Calm -- 30.06 in1017.9 mb 0.00 in0.0 mm 0.00 in0.0 mm 0.07 in1.8 mm
04:21 AM 66.2°F19.0°C 65.0°F18.3°C 96% Calm Calm -- 30.06 in1017.9 mb 0.00 in0.0 mm 0.00 in0.0 mm 0.07 in1.8 mm
04:26 AM 66.1°F18.9°C 64.9°F18.3°C 96% Calm Calm -- 30.06 in1017.9 mb 0.00 in0.0 mm 0.00 in0.0 mm 0.07 in1.8 mm
04:31 AM 66.1°F18.9°C 64.9°F18.3°C 96% Calm Calm -- 30.06 in1017.9 mb 0.00 in0.0 mm 0.00 in0.0 mm 0.07 in1.8 mm
04:36 AM 66.0°F18.9°C 64.8°F18.2°C 96% Calm Calm -- 30.06 in1017.9 mb 0.00 in0.0 mm 0.00 in0.0 mm 0.07 in1.8 mm
04:41 AM 65.9°F18.8°C 64.7°F18.2°C 96% Calm Calm -- 30.06 in1017.9 mb 0.00 in0.0 mm 0.00 in0.0 mm 0.07 in1.8 mm
04:46 AM 65.7°F18.7°C 64.5°F18.1°C 96% Calm Calm -- 30.06 in1017.9 mb 0.00 in0.0 mm 0.00 in0.0 mm 0.07 in1.8 mm
04:51 AM 65.7°F18.7°C 64.5°F18.1°C 96% Calm Calm -- 30.06 in1017.9 mb 0.00 in0.0 mm 0.00 in0.0 mm 0.07 in1.8 mm
04:56 AM 65.6°F18.7°C 64.4°F18.0°C 96% Calm Calm -- 30.06 in1017.9 mb 0.00 in0.0 mm 0.00 in0.0 mm 0.07 in1.8 mm
05:01 AM 65.5°F18.6°C 64.3°F17.9°C 96% Calm Calm -- 30.07 in1018.3 mb 0.00 in0.0 mm 0.00 in0.0 mm 0.07 in1.8 mm
05:06 AM 65.5°F18.6°C 64.3°F17.9°C 96% Calm Calm -- 30.07 in1018.3 mb 0.00 in0.0 mm 0.00 in0.0 mm 0.07 in1.8 mm
05:11 AM 65.5°F18.6°C 64.3°F17.9°C 96% Calm Calm -- 30.06 in1017.9 mb 0.00 in0.0 mm 0.00 in0.0 mm 0.07 in1.8 mm
05:16 AM 65.4°F18.6°C 64.2°F17.9°C 96% Calm Calm -- 30.07 in1018.3 mb 0.00 in0.0 mm 0.00 in0.0 mm 0.07 in1.8 mm
05:21 AM 65.3°F18.5°C 64.1°F17.8°C 96% Calm Calm -- 30.07 in1018.3 mb 0.00 in0.0 mm 0.00 in0.0 mm 0.07 in1.8 mm
05:26 AM 65.4°F18.6°C 64.2°F17.9°C 96% Calm Calm -- 30.07 in1018.3 mb 0.00 in0.0 mm 0.00 in0.0 mm 0.07 in1.8 mm
05:31 AM 65.5°F18.6°C 64.3°F17.9°C 96% Calm Calm -- 30.07 in1018.3 mb 0.00 in0.0 mm 0.00 in0.0 mm 0.07 in1.8 mm
05:36 AM 65.6°F18.7°C 64.4°F18.0°C 96% Calm Calm -- 30.07 in1018.3 mb 0.00 in0.0 mm 0.00 in0.0 mm 0.07 in1.8 mm
05:41 AM 65.7°F18.7°C 64.5°F18.1°C 96% Calm Calm -- 30.07 in1018.3 mb 0.00 in0.0 mm 0.00 in0.0 mm 0.07 in1.8 mm
05:46 AM 65.8°F18.8°C 64.6°F18.1°C 96% Calm Calm -- 30.07 in1018.3 mb 0.00 in0.0 mm 0.00 in0.0 mm 0.07 in1.8 mm
05:51 AM 65.8°F18.8°C 64.6°F18.1°C 96% Calm Calm -- 30.07 in1018.3 mb 0.00 in0.0 mm 0.00 in0.0 mm 0.07 in1.8 mm
05:56 AM 65.7°F18.7°C 64.5°F18.1°C 96% 1.3 mph SE2.1 kmh SE 1.3 mph2.1 kmh 30.07 in1018.3 mb 0.00 in0.0 mm 0.00 in0.0 mm 0.07 in1.8 mm
06:01 AM 65.7°F18.7°C 64.5°F18.1°C 96% Calm Calm 1.3 mph2.1 kmh 30.07 in1018.3 mb 0.00 in0.0 mm 0.00 in0.0 mm 0.07 in1.8 mm
06:06 AM 65.8°F18.8°C 64.6°F18.1°C 96% Calm Calm 1.3 mph2.1 kmh 30.06 in1017.9 mb 0.00 in0.0 mm 0.00 in0.0 mm 0.07 in1.8 mm
06:11 AM 65.9°F18.8°C 64.7°F18.2°C 96% Calm Calm 1.0 mph1.6 kmh 30.07 in1018.3 mb 0.00 in0.0 mm 0.00 in0.0 mm 0.07 in1.8 mm
06:16 AM 65.9°F18.8°C 64.7°F18.2°C 96% Calm Calm 1.0 mph1.6 kmh 30.07 in1018.3 mb 0.00 in0.0 mm 0.00 in0.0 mm 0.07 in1.8 mm
06:21 AM 66.0°F18.9°C 64.8°F18.2°C 96% Calm Calm -- 30.07 in1018.3 mb 0.00 in0.0 mm 0.00 in0.0 mm 0.07 in1.8 mm
06:26 AM 66.0°F18.9°C 64.8°F18.2°C 96% Calm Calm 1.0 mph1.6 kmh 30.08 in1018.6 mb 0.00 in0.0 mm 0.00 in0.0 mm 0.07 in1.8 mm
06:31 AM 66.2°F19.0°C 65.3°F18.5°C 97% Calm Calm 1.0 mph1.6 kmh 30.08 in1018.6 mb 0.00 in0.0 mm 0.00 in0.0 mm 0.07 in1.8 mm
06:36 AM 66.1°F18.9°C 64.9°F18.3°C 96% Calm Calm 1.0 mph1.6 kmh 30.08 in1018.6 mb 0.00 in0.0 mm 0.00 in0.0 mm 0.07 in1.8 mm
06:41 AM 66.0°F18.9°C 64.8°F18.2°C 96% Calm Calm -- 30.08 in1018.6 mb 0.00 in0.0 mm 0.00 in0.0 mm 0.07 in1.8 mm
06:46 AM 66.0°F18.9°C 64.8°F18.2°C 96% Calm Calm -- 30.08 in1018.6 mb 0.00 in0.0 mm 0.00 in0.0 mm 0.07 in1.8 mm
06:51 AM 65.9°F18.8°C 64.7°F18.2°C 96% Calm Calm -- 30.08 in1018.6 mb 0.00 in0.0 mm 0.00 in0.0 mm 0.07 in1.8 mm
06:56 AM 65.9°F18.8°C 64.7°F18.2°C 96% Calm Calm -- 30.08 in1018.6 mb 0.00 in0.0 mm 0.00 in0.0 mm 0.07 in1.8 mm
07:01 AM 66.0°F18.9°C 64.8°F18.2°C 96% Calm Calm -- 30.08 in1018.6 mb 0.00 in0.0 mm 0.00 in0.0 mm 0.07 in1.8 mm
07:07 AM 66.0°F18.9°C 65.1°F18.4°C 97% Calm Calm -- 30.08 in1018.6 mb 0.00 in0.0 mm 0.00 in0.0 mm 0.07 in1.8 mm
07:12 AM 66.3°F19.1°C 65.4°F18.6°C 97% Calm Calm -- 30.09 in1019.0 mb 0.00 in0.0 mm 0.00 in0.0 mm 0.07 in1.8 mm
07:17 AM 66.5°F19.2°C 65.6°F18.7°C 97% Calm Calm -- 30.09 in1019.0 mb 0.00 in0.0 mm 0.00 in0.0 mm 0.07 in1.8 mm
07:22 AM 66.7°F19.3°C 65.8°F18.8°C 97% Calm Calm -- 30.09 in1019.0 mb 0.00 in0.0 mm 0.00 in0.0 mm 0.07 in1.8 mm
07:27 AM 66.9°F19.4°C 66.0°F18.9°C 97% Calm Calm -- 30.09 in1019.0 mb 0.00 in0.0 mm 0.00 in0.0 mm 0.07 in1.8 mm
07:32 AM 67.2°F19.6°C 66.3°F19.1°C 97% 1.3 mph SE2.1 kmh SE 1.3 mph2.1 kmh 30.10 in1019.3 mb 0.00 in0.0 mm 0.00 in0.0 mm 0.07 in1.8 mm
07:37 AM 67.5°F19.7°C 66.6°F19.2°C 97% Calm Calm 1.3 mph2.1 kmh 30.09 in1019.0 mb 0.00 in0.0 mm 0.00 in0.0 mm 0.07 in1.8 mm
07:42 AM 67.7°F19.8°C 66.8°F19.3°C 97% Calm Calm 1.0 mph1.6 kmh 30.09 in1019.0 mb 0.00 in0.0 mm 0.00 in0.0 mm 0.07 in1.8 mm
07:47 AM 68.0°F20.0°C 67.1°F19.5°C 97% Calm Calm 1.0 mph1.6 kmh 30.09 in1019.0 mb 0.00 in0.0 mm 0.00 in0.0 mm 0.07 in1.8 mm
07:52 AM 68.2°F20.1°C 67.3°F19.6°C 97% 1.3 mph SW2.1 kmh SW 1.3 mph2.1 kmh 30.09 in1019.0 mb 0.00 in0.0 mm 0.00 in0.0 mm 0.07 in1.8 mm
07:57 AM 68.4°F20.2°C 67.5°F19.7°C 97% 1.5 mph SW2.4 kmh SW 2.5 mph4.0 kmh 30.09 in1019.0 mb 0.00 in0.0 mm 0.00 in0.0 mm 0.07 in1.8 mm
08:02 AM 68.4°F20.2°C 67.2°F19.6°C 96% 1.3 mph SW2.1 kmh SW 2.5 mph4.0 kmh 30.09 in1019.0 mb 0.00 in0.0 mm 0.00 in0.0 mm 0.07 in1.8 mm
08:07 AM 68.7°F20.4°C 67.8°F19.9°C 97% Calm Calm 2.5 mph4.0 kmh 30.09 in1019.0 mb 0.00 in0.0 mm 0.00 in0.0 mm 0.07 in1.8 mm
08:12 AM 69.0°F20.6°C 68.1°F20.1°C 97% Calm Calm 2.0 mph3.2 kmh 30.09 in1019.0 mb 0.00 in0.0 mm 0.00 in0.0 mm 0.07 in1.8 mm
08:17 AM 69.3°F20.7°C 68.4°F20.2°C 97% Calm Calm 2.0 mph3.2 kmh 30.09 in1019.0 mb 0.00 in0.0 mm 0.00 in0.0 mm 0.07 in1.8 mm
08:22 AM 70.0°F21.1°C 69.1°F20.6°C 97% Calm Calm 1.0 mph1.6 kmh 30.09 in1019.0 mb 0.00 in0.0 mm 0.00 in0.0 mm 0.07 in1.8 mm
08:27 AM 70.0°F21.1°C 68.8°F20.4°C 96% 1.3 mph E2.1 kmh E 1.3 mph2.1 kmh 30.09 in1019.0 mb 0.00 in0.0 mm 0.00 in0.0 mm 0.07 in1.8 mm
08:32 AM 70.6°F21.4°C 69.4°F20.8°C 96% 1.3 mph N2.1 kmh N 1.3 mph2.1 kmh 30.09 in1019.0 mb 0.00 in0.0 mm 0.00 in0.0 mm 0.07 in1.8 mm
08:37 AM 71.4°F21.9°C 70.2°F21.2°C 96% Calm Calm 1.3 mph2.1 kmh 30.09 in1019.0 mb 0.00 in0.0 mm 0.00 in0.0 mm 0.07 in1.8 mm
08:42 AM 72.5°F22.5°C 71.3°F21.8°C 96% Calm Calm 1.0 mph1.6 kmh 30.10 in1019.3 mb 0.00 in0.0 mm 0.00 in0.0 mm 0.07 in1.8 mm
08:47 AM 73.3°F22.9°C 71.4°F21.9°C 94% 1.3 mph SSE2.1 kmh SSE 2.5 mph4.0 kmh 30.10 in1019.3 mb 0.00 in0.0 mm 0.00 in0.0 mm 0.07 in1.8 mm
08:52 AM 73.6°F23.1°C 70.8°F21.6°C 91% 1.3 mph SSE2.1 kmh SSE 2.5 mph4.0 kmh 30.10 in1019.3 mb 0.00 in0.0 mm 0.00 in0.0 mm 0.07 in1.8 mm
08:57 AM 73.4°F23.0°C 70.3°F21.3°C 90% 1.3 mph SW2.1 kmh SW 2.0 mph3.2 kmh 30.10 in1019.3 mb 0.00 in0.0 mm 0.00 in0.0 mm 0.07 in1.8 mm
09:02 AM 73.1°F22.8°C 70.0°F21.1°C 90% 1.3 mph S2.1 kmh S 2.0 mph3.2 kmh 30.10 in1019.3 mb 0.00 in0.0 mm 0.00 in0.0 mm 0.07 in1.8 mm
09:07 AM 72.7°F22.6°C 69.6°F20.9°C 90% 1.8 mph S2.9 kmh S 2.5 mph4.0 kmh 30.11 in1019.6 mb 0.00 in0.0 mm 0.00 in0.0 mm 0.07 in1.8 mm
09:12 AM 72.4°F22.4°C 69.6°F20.9°C 91% 1.3 mph SSE2.1 kmh SSE 2.5 mph4.0 kmh 30.11 in1019.6 mb 0.00 in0.0 mm 0.00 in0.0 mm 0.07 in1.8 mm
09:17 AM 72.3°F22.4°C 69.5°F20.8°C 91% 1.3 mph SSE2.1 kmh SSE 2.5 mph4.0 kmh 30.11 in1019.6 mb 0.00 in0.0 mm 0.00 in0.0 mm 0.07 in1.8 mm
09:22 AM 72.2°F22.3°C 69.4°F20.8°C 91% 1.5 mph SSE2.4 kmh SSE 2.5 mph4.0 kmh 30.10 in1019.3 mb 0.00 in0.0 mm 0.00 in0.0 mm 0.07 in1.8 mm
09:27 AM 72.3°F22.4°C 69.8°F21.0°C 92% 1.3 mph SSW2.1 kmh SSW 5.0 mph8.0 kmh 30.11 in1019.6 mb 0.00 in0.0 mm 0.00 in0.0 mm 0.07 in1.8 mm
09:32 AM 72.9°F22.7°C 69.5°F20.8°C 89% 2.8 mph SSE4.5 kmh SSE 5.0 mph8.0 kmh 30.11 in1019.6 mb 0.00 in0.0 mm 0.00 in0.0 mm 0.07 in1.8 mm
09:37 AM 73.3°F22.9°C 69.9°F21.1°C 89% 2.3 mph SSW3.7 kmh SSW 5.0 mph8.0 kmh 30.11 in1019.6 mb 0.00 in0.0 mm 0.00 in0.0 mm 0.07 in1.8 mm
09:42 AM 73.4°F23.0°C 70.0°F21.1°C 89% 2.3 mph S3.7 kmh S 5.0 mph8.0 kmh 30.11 in1019.6 mb 0.00 in0.0 mm 0.00 in0.0 mm 0.07 in1.8 mm
09:47 AM 73.6°F23.1°C 69.8°F21.0°C 88% 2.3 mph S3.7 kmh S 6.3 mph10.1 kmh 30.11 in1019.6 mb 0.00 in0.0 mm 0.00 in0.0 mm 0.07 in1.8 mm
09:52 AM 73.5°F23.1°C 69.7°F20.9°C 88% 2.8 mph SE4.5 kmh SE 6.3 mph10.1 kmh 30.11 in1019.6 mb 0.00 in0.0 mm 0.00 in0.0 mm 0.07 in1.8 mm
09:57 AM 73.5°F23.1°C 70.1°F21.2°C 89% 3.0 mph S4.8 kmh S 6.3 mph10.1 kmh 30.11 in1019.6 mb 0.00 in0.0 mm 0.00 in0.0 mm 0.07 in1.8 mm
10:02 AM 73.3°F22.9°C 69.5°F20.8°C 88% 2.5 mph S4.0 kmh S 10.0 mph16.1 kmh 30.12 in1020.0 mb 0.00 in0.0 mm 0.00 in0.0 mm 0.07 in1.8 mm
10:07 AM 73.1°F22.8°C 69.3°F20.7°C 88% 2.6 mph S4.2 kmh S 10.0 mph16.1 kmh 30.12 in1020.0 mb 0.00 in0.0 mm 0.00 in0.0 mm 0.07 in1.8 mm
10:12 AM 72.8°F22.7°C 69.0°F20.6°C 88% 1.8 mph S2.9 kmh S 8.0 mph12.9 kmh 30.11 in1019.6 mb 0.00 in0.0 mm 0.00 in0.0 mm 0.07 in1.8 mm
10:17 AM 72.6°F22.6°C 69.5°F20.8°C 90% 1.6 mph S2.6 kmh S 8.0 mph12.9 kmh 30.12 in1020.0 mb 0.00 in0.0 mm 0.00 in0.0 mm 0.07 in1.8 mm
10:22 AM 72.3°F22.4°C 68.9°F20.5°C 89% 1.9 mph SSW3.1 kmh SSW 5.0 mph8.0 kmh 30.12 in1020.0 mb 0.00 in0.0 mm 0.00 in0.0 mm 0.07 in1.8 mm
10:27 AM 72.0°F22.2°C 68.9°F20.5°C 90% 1.3 mph SSE2.1 kmh SSE 5.0 mph8.0 kmh 30.11 in1019.6 mb 0.00 in0.0 mm 0.00 in0.0 mm 0.07 in1.8 mm
10:32 AM 71.8°F22.1°C 68.7°F20.4°C 90% 1.6 mph SE2.6 kmh SE 4.0 mph6.4 kmh 30.12 in1020.0 mb 0.00 in0.0 mm 0.00 in0.0 mm 0.07 in1.8 mm
10:37 AM 71.6°F22.0°C 68.5°F20.3°C 90% Calm Calm 3.0 mph4.8 kmh 30.12 in1020.0 mb 0.00 in0.0 mm 0.00 in0.0 mm 0.07 in1.8 mm
10:42 AM 71.7°F22.1°C 68.9°F20.5°C 91% Calm Calm 2.0 mph3.2 kmh 30.12 in1020.0 mb 0.00 in0.0 mm 0.00 in0.0 mm 0.07 in1.8 mm
10:47 AM 71.9°F22.2°C 69.4°F20.8°C 92% Calm Calm 2.0 mph3.2 kmh 30.11 in1019.6 mb 0.00 in0.0 mm 0.00 in0.0 mm 0.07 in1.8 mm
10:52 AM 72.0°F22.2°C 69.5°F20.8°C 92% Calm Calm 1.3 mph2.1 kmh 30.11 in1019.6 mb 0.00 in0.0 mm 0.00 in0.0 mm 0.07 in1.8 mm
10:57 AM 72.3°F22.4°C 69.5°F20.8°C 91% Calm Calm 1.3 mph2.1 kmh 30.11 in1019.6 mb 0.00 in0.0 mm 0.00 in0.0 mm 0.07 in1.8 mm
11:02 AM 72.8°F22.7°C 69.7°F20.9°C 90% 1.3 mph E2.1 kmh E 1.3 mph2.1 kmh 30.10 in1019.3 mb 0.00 in0.0 mm 0.00 in0.0 mm 0.07 in1.8 mm
11:07 AM 73.4°F23.0°C 70.0°F21.1°C 89% 1.7 mph SE2.7 kmh SE 2.5 mph4.0 kmh 30.11 in1019.6 mb 0.00 in0.0 mm 0.00 in0.0 mm 0.07 in1.8 mm
11:12 AM 73.8°F23.2°C 70.3°F21.3°C 89% 1.3 mph SE2.1 kmh SE 2.5 mph4.0 kmh 30.11 in1019.6 mb 0.00 in0.0 mm 0.00 in0.0 mm 0.07 in1.8 mm
11:17 AM 74.4°F23.6°C 70.6°F21.4°C 88% Calm Calm 2.5 mph4.0 kmh 30.11 in1019.6 mb 0.00 in0.0 mm 0.00 in0.0 mm 0.07 in1.8 mm
11:22 AM 74.9°F23.8°C 70.1°F21.2°C 85% 1.7 mph SSW2.7 kmh SSW 2.5 mph4.0 kmh 30.11 in1019.6 mb 0.00 in0.0 mm 0.00 in0.0 mm 0.07 in1.8 mm
11:28 AM 75.2°F24.0°C 70.4°F21.3°C 85% 1.3 mph S2.1 kmh S 3.8 mph6.1 kmh 30.11 in1019.6 mb 0.00 in0.0 mm 0.00 in0.0 mm 0.07 in1.8 mm
11:33 AM 75.7°F24.3°C 70.9°F21.6°C 85% 1.3 mph ESE2.1 kmh ESE 3.8 mph6.1 kmh 30.11 in1019.6 mb 0.00 in0.0 mm 0.00 in0.0 mm 0.07 in1.8 mm
11:38 AM 76.1°F24.5°C 70.6°F21.4°C 83% 1.3 mph S2.1 kmh S 3.0 mph4.8 kmh 30.11 in1019.6 mb 0.00 in0.0 mm 0.00 in0.0 mm 0.07 in1.8 mm
11:43 AM 75.9°F24.4°C 70.4°F21.3°C 83% 1.6 mph SSE2.6 kmh SSE 3.8 mph6.1 kmh 30.11 in1019.6 mb 0.00 in0.0 mm 0.00 in0.0 mm 0.07 in1.8 mm
11:48 AM 76.1°F24.5°C 71.0°F21.7°C 84% 1.3 mph SE2.1 kmh SE 3.8 mph6.1 kmh 30.11 in1019.6 mb 0.00 in0.0 mm 0.00 in0.0 mm 0.07 in1.8 mm
11:53 AM 76.8°F24.9°C 71.7°F22.1°C 84% 1.3 mph W2.1 kmh W 3.0 mph4.8 kmh 30.10 in1019.3 mb 0.00 in0.0 mm 0.00 in0.0 mm 0.07 in1.8 mm
11:58 AM 76.8°F24.9°C 71.2°F21.8°C 83% 1.5 mph SSE2.4 kmh SSE 3.8 mph6.1 kmh 30.10 in1019.3 mb 0.00 in0.0 mm 0.00 in0.0 mm 0.07 in1.8 mm
12:03 PM 76.9°F24.9°C 70.6°F21.4°C 81% 2.3 mph SSE3.7 kmh SSE 5.0 mph8.0 kmh 30.10 in1019.3 mb 0.00 in0.0 mm 0.00 in0.0 mm 0.07 in1.8 mm
12:08 PM 77.5°F25.3°C 71.9°F22.2°C 83% 1.9 mph SW3.1 kmh SW 5.0 mph8.0 kmh 30.10 in1019.3 mb 0.00 in0.0 mm 0.00 in0.0 mm 0.07 in1.8 mm
12:13 PM 77.9°F25.5°C 71.7°F22.1°C 81% 2.1 mph ENE3.4 kmh ENE 4.0 mph6.4 kmh 30.10 in1019.3 mb 0.00 in0.0 mm 0.00 in0.0 mm 0.07 in1.8 mm
12:18 PM 78.4°F25.8°C 71.8°F22.1°C 80% 1.3 mph SE2.1 kmh SE 4.0 mph6.4 kmh 30.10 in1019.3 mb 0.00 in0.0 mm 0.00 in0.0 mm 0.07 in1.8 mm
12:23 PM 79.1°F26.2°C 72.2°F22.3°C 79% 1.4 mph S2.3 kmh S 3.0 mph4.8 kmh 30.10 in1019.3 mb 0.00 in0.0 mm 0.00 in0.0 mm 0.07 in1.8 mm
12:28 PM 78.9°F26.1°C 72.0°F22.2°C 79% 1.3 mph SW2.1 kmh SW 5.0 mph8.0 kmh 30.10 in1019.3 mb 0.00 in0.0 mm 0.00 in0.0 mm 0.07 in1.8 mm
12:33 PM 78.8°F26.0°C 71.7°F22.1°C 79% 1.3 mph WNW2.1 kmh WNW 5.0 mph8.0 kmh 30.09 in1019.0 mb 0.00 in0.0 mm 0.00 in0.0 mm 0.07 in1.8 mm
12:38 PM 79.0°F26.1°C 71.7°F22.1°C 78% 1.3 mph NW2.1 kmh NW 4.0 mph6.4 kmh 30.10 in1019.3 mb 0.00 in0.0 mm 0.00 in0.0 mm 0.07 in1.8 mm
12:43 PM 78.9°F26.1°C 73.0°F22.8°C 82% Calm Calm 4.0 mph6.4 kmh 30.10 in1019.3 mb 0.00 in0.0 mm 0.00 in0.0 mm 0.07 in1.8 mm
12:48 PM 79.2°F26.2°C 73.0°F22.8°C 81% Calm Calm 1.3 mph2.1 kmh 30.10 in1019.3 mb 0.00 in0.0 mm 0.00 in0.0 mm 0.07 in1.8 mm
12:53 PM 79.6°F26.4°C 73.0°F22.8°C 80% 1.9 mph N3.1 kmh N 3.0 mph4.8 kmh 30.10 in1019.3 mb 0.00 in0.0 mm 0.00 in0.0 mm 0.07 in1.8 mm
12:58 PM 79.7°F26.5°C 72.4°F22.4°C 78% 2.0 mph SE3.2 kmh SE 6.3 mph10.1 kmh 30.10 in1019.3 mb 0.00 in0.0 mm 0.00 in0.0 mm 0.07 in1.8 mm
01:03 PM 80.6°F27.0°C 73.6°F23.1°C 79% 1.3 mph ESE2.1 kmh ESE 6.3 mph10.1 kmh 30.09 in1019.0 mb 0.00 in0.0 mm 0.00 in0.0 mm 0.07 in1.8 mm
01:08 PM 81.2°F27.3°C 73.5°F23.1°C 77% 1.3 mph S2.1 kmh S 5.0 mph8.0 kmh 30.10 in1019.3 mb 0.00 in0.0 mm 0.00 in0.0 mm 0.07 in1.8 mm
01:13 PM 82.0°F27.8°C 73.1°F22.8°C 74% 1.6 mph WSW2.6 kmh WSW 4.0 mph6.4 kmh 30.09 in1019.0 mb 0.00 in0.0 mm 0.00 in0.0 mm 0.07 in1.8 mm
01:18 PM 82.4°F28.0°C 73.5°F23.1°C 74% 1.8 mph ESE2.9 kmh ESE 4.0 mph6.4 kmh 30.09 in1019.0 mb 0.00 in0.0 mm 0.00 in0.0 mm 0.07 in1.8 mm
01:23 PM 82.7°F28.2°C 74.5°F23.6°C 76% 1.4 mph WSW2.3 kmh WSW 5.0 mph8.0 kmh 30.09 in1019.0 mb 0.00 in0.0 mm 0.00 in0.0 mm 0.07 in1.8 mm
01:28 PM 83.0°F28.3°C 74.4°F23.6°C 75% 1.6 mph S2.6 kmh S 5.0 mph8.0 kmh 30.09 in1019.0 mb 0.00 in0.0 mm 0.00 in0.0 mm 0.07 in1.8 mm
01:33 PM 83.1°F28.4°C 73.4°F23.0°C 72% 2.3 mph S3.7 kmh S 4.0 mph6.4 kmh 30.09 in1019.0 mb 0.00 in0.0 mm 0.00 in0.0 mm 0.07 in1.8 mm
01:38 PM 83.4°F28.6°C 74.0°F23.3°C 73% 2.2 mph SSW3.5 kmh SSW 5.0 mph8.0 kmh 30.08 in1018.6 mb 0.00 in0.0 mm 0.00 in0.0 mm 0.07 in1.8 mm
01:43 PM 83.4°F28.6°C 73.2°F22.9°C 71% 2.2 mph S3.5 kmh S 6.3 mph10.1 kmh 30.08 in1018.6 mb 0.00 in0.0 mm 0.00 in0.0 mm 0.07 in1.8 mm
01:48 PM 83.9°F28.8°C 73.3°F22.9°C 70% 1.3 mph W2.1 kmh W 6.3 mph10.1 kmh 30.08 in1018.6 mb 0.00 in0.0 mm 0.00 in0.0 mm 0.07 in1.8 mm
01:53 PM 83.9°F28.8°C 72.9°F22.7°C 69% 1.3 mph SW2.1 kmh SW 6.0 mph9.7 kmh 30.07 in1018.3 mb 0.00 in0.0 mm 0.00 in0.0 mm 0.07 in1.8 mm
01:58 PM 84.4°F29.1°C 74.2°F23.4°C 71% 1.7 mph SW2.7 kmh SW 5.0 mph8.0 kmh 30.07 in1018.3 mb 0.00 in0.0 mm 0.00 in0.0 mm 0.07 in1.8 mm
02:03 PM 84.6°F29.2°C 74.4°F23.6°C 71% 1.9 mph SSE3.1 kmh SSE 3.8 mph6.1 kmh 30.07 in1018.3 mb 0.00 in0.0 mm 0.00 in0.0 mm 0.07 in1.8 mm
02:08 PM 84.8°F29.3°C 72.9°F22.7°C 67% 5.9 mph S9.5 kmh S 10.0 mph16.1 kmh 30.07 in1018.3 mb 0.00 in0.0 mm 0.00 in0.0 mm 0.07 in1.8 mm
02:13 PM 84.9°F29.4°C 73.4°F23.0°C 68% 2.0 mph SE3.2 kmh SE 10.0 mph16.1 kmh 30.06 in1017.9 mb 0.00 in0.0 mm 0.00 in0.0 mm 0.07 in1.8 mm
02:18 PM 84.5°F29.2°C 72.6°F22.6°C 67% 4.0 mph S6.4 kmh S 10.0 mph16.1 kmh 30.06 in1017.9 mb 0.00 in0.0 mm 0.00 in0.0 mm 0.07 in1.8 mm
02:23 PM 84.5°F29.2°C 72.6°F22.6°C 67% 1.7 mph S2.7 kmh S 10.0 mph16.1 kmh 30.06 in1017.9 mb 0.00 in0.0 mm 0.00 in0.0 mm 0.07 in1.8 mm
02:28 PM 84.8°F29.3°C 72.9°F22.7°C 67% 2.0 mph SW3.2 kmh SW 7.0 mph11.3 kmh 30.05 in1017.6 mb 0.00 in0.0 mm 0.00 in0.0 mm 0.07 in1.8 mm
02:33 PM 85.4°F29.7°C 72.6°F22.6°C 65% 2.5 mph S4.0 kmh S 7.0 mph11.3 kmh 30.05 in1017.6 mb 0.00 in0.0 mm 0.00 in0.0 mm 0.07 in1.8 mm
02:38 PM 85.8°F29.9°C 71.6°F22.0°C 62% 3.6 mph SSW5.8 kmh SSW 8.8 mph14.2 kmh 30.05 in1017.6 mb 0.00 in0.0 mm 0.00 in0.0 mm 0.07 in1.8 mm
02:43 PM 85.7°F29.8°C 71.9°F22.2°C 63% 2.6 mph ESE4.2 kmh ESE 8.8 mph14.2 kmh 30.04 in1017.3 mb 0.00 in0.0 mm 0.00 in0.0 mm 0.07 in1.8 mm
02:48 PM 85.8°F29.9°C 73.8°F23.2°C 67% 3.2 mph S5.1 kmh S 8.0 mph12.9 kmh 30.04 in1017.3 mb 0.00 in0.0 mm 0.00 in0.0 mm 0.07 in1.8 mm
02:53 PM 86.0°F30.0°C 72.2°F22.3°C 63% 2.9 mph S4.7 kmh S 8.8 mph14.2 kmh 30.03 in1016.9 mb 0.00 in0.0 mm 0.00 in0.0 mm 0.07 in1.8 mm
02:58 PM 85.9°F29.9°C 71.6°F22.0°C 62% 2.6 mph SSE4.2 kmh SSE 12.5 mph20.1 kmh 30.03 in1016.9 mb 0.00 in0.0 mm 0.00 in0.0 mm 0.07 in1.8 mm
03:03 PM 86.0°F30.0°C 70.3°F21.3°C 59% 5.7 mph S9.2 kmh S 12.5 mph20.1 kmh 30.03 in1016.9 mb 0.00 in0.0 mm 0.00 in0.0 mm 0.07 in1.8 mm
03:08 PM 86.1°F30.1°C 74.1°F23.4°C 67% 1.9 mph S3.1 kmh S 11.3 mph18.2 kmh 30.03 in1016.9 mb 0.00 in0.0 mm 0.00 in0.0 mm 0.07 in1.8 mm
03:13 PM 86.4°F30.2°C 71.1°F21.7°C 60% 5.8 mph S9.3 kmh S 12.5 mph20.1 kmh 30.03 in1016.9 mb 0.00 in0.0 mm 0.00 in0.0 mm 0.07 in1.8 mm
03:18 PM 86.2°F30.1°C 71.9°F22.2°C 62% 2.7 mph S4.3 kmh S 12.5 mph20.1 kmh 30.03 in1016.9 mb 0.00 in0.0 mm 0.00 in0.0 mm 0.07 in1.8 mm
03:23 PM 86.2°F30.1°C 72.4°F22.4°C 63% 2.3 mph SW3.7 kmh SW 12.5 mph20.1 kmh 30.03 in1016.9 mb 0.00 in0.0 mm 0.00 in0.0 mm 0.07 in1.8 mm
03:28 PM 86.4°F30.2°C 71.4°F21.9°C 61% 4.6 mph S7.4 kmh S 10.0 mph16.1 kmh 30.02 in1016.6 mb 0.00 in0.0 mm 0.00 in0.0 mm 0.07 in1.8 mm
03:34 PM 86.6°F30.3°C 71.1°F21.7°C 60% 4.4 mph S7.1 kmh S 8.8 mph14.2 kmh 30.02 in1016.6 mb 0.00 in0.0 mm 0.00 in0.0 mm 0.07 in1.8 mm
03:39 PM 86.4°F30.2°C 70.1°F21.2°C 58% 4.8 mph SSW7.7 kmh SSW 11.3 mph18.2 kmh 30.02 in1016.6 mb 0.00 in0.0 mm 0.00 in0.0 mm 0.07 in1.8 mm
03:45 PM 86.4°F30.2°C 70.6°F21.4°C 59% 2.0 mph SW3.2 kmh SW 11.3 mph18.2 kmh 30.02 in1016.6 mb 0.00 in0.0 mm 0.00 in0.0 mm 0.07 in1.8 mm
03:50 PM 87.0°F30.6°C 70.7°F21.5°C 58% 3.0 mph S4.8 kmh S 11.3 mph18.2 kmh 30.01 in1016.3 mb 0.00 in0.0 mm 0.00 in0.0 mm 0.07 in1.8 mm
03:55 PM 87.4°F30.8°C 70.0°F21.1°C 56% 3.9 mph S6.3 kmh S 8.0 mph12.9 kmh 30.02 in1016.6 mb 0.00 in0.0 mm 0.00 in0.0 mm 0.07 in1.8 mm
04:00 PM 87.2°F30.7°C 70.4°F21.3°C 57% 5.4 mph S8.7 kmh S 8.8 mph14.2 kmh 30.01 in1016.3 mb 0.00 in0.0 mm 0.00 in0.0 mm 0.07 in1.8 mm
04:05 PM 87.4°F30.8°C 71.1°F21.7°C 58% 2.2 mph SE3.5 kmh SE 8.8 mph14.2 kmh 30.01 in1016.3 mb 0.00 in0.0 mm 0.00 in0.0 mm 0.07 in1.8 mm
04:10 PM 87.5°F30.8°C 71.7°F22.1°C 59% 5.2 mph SSW8.4 kmh SSW 13.8 mph22.2 kmh 30.01 in1016.3 mb 0.00 in0.0 mm 0.00 in0.0 mm 0.07 in1.8 mm
04:15 PM 87.3°F30.7°C 69.4°F20.8°C 55% 4.5 mph S7.2 kmh S 13.8 mph22.2 kmh 30.01 in1016.3 mb 0.00 in0.0 mm 0.00 in0.0 mm 0.07 in1.8 mm
04:20 PM 87.6°F30.9°C 70.7°F21.5°C 57% 4.7 mph SSE7.6 kmh SSE 11.0 mph17.7 kmh 30.01 in1016.3 mb 0.00 in0.0 mm 0.00 in0.0 mm 0.07 in1.8 mm
04:25 PM 87.7°F30.9°C 70.3°F21.3°C 56% 6.4 mph S10.3 kmh S 13.8 mph22.2 kmh 30.00 in1015.9 mb 0.00 in0.0 mm 0.00 in0.0 mm 0.07 in1.8 mm
04:30 PM 87.3°F30.7°C 68.8°F20.4°C 54% 3.4 mph SSW5.5 kmh SSW 13.8 mph22.2 kmh 30.00 in1015.9 mb 0.00 in0.0 mm 0.00 in0.0 mm 0.07 in1.8 mm
04:35 PM 87.3°F30.7°C 68.8°F20.4°C 54% 2.3 mph S3.7 kmh S 12.5 mph20.1 kmh 30.01 in1016.3 mb 0.00 in0.0 mm 0.00 in0.0 mm 0.07 in1.8 mm
04:40 PM 87.5°F30.8°C 68.8°F20.4°C 54% 2.2 mph S3.5 kmh S 12.5 mph20.1 kmh 30.00 in1015.9 mb 0.00 in0.0 mm 0.00 in0.0 mm 0.07 in1.8 mm
04:45 PM 87.5°F30.8°C 67.7°F19.8°C 52% 6.4 mph S10.3 kmh S 13.8 mph22.2 kmh 30.00 in1015.9 mb 0.00 in0.0 mm 0.00 in0.0 mm 0.07 in1.8 mm
04:50 PM 87.3°F30.7°C 67.7°F19.8°C 52% 6.8 mph S10.9 kmh S 13.8 mph22.2 kmh 30.00 in1015.9 mb 0.00 in0.0 mm 0.00 in0.0 mm 0.07 in1.8 mm
04:55 PM 87.7°F30.9°C 70.3°F21.3°C 56% 1.3 mph SSE2.1 kmh SSE 12.0 mph19.3 kmh 30.00 in1015.9 mb 0.00 in0.0 mm 0.00 in0.0 mm 0.07 in1.8 mm
05:00 PM 88.3°F31.3°C 69.2°F20.7°C 53% 3.4 mph SSE5.5 kmh SSE 12.0 mph19.3 kmh 30.00 in1015.9 mb 0.00 in0.0 mm 0.00 in0.0 mm 0.07 in1.8 mm
05:05 PM 87.8°F31.0°C 68.8°F20.4°C 53% 3.6 mph S5.8 kmh S 10.0 mph16.1 kmh 30.00 in1015.9 mb 0.00 in0.0 mm 0.00 in0.0 mm 0.07 in1.8 mm
05:10 PM 87.7°F30.9°C 68.7°F20.4°C 53% 4.2 mph S6.8 kmh S 8.8 mph14.2 kmh 30.00 in1015.9 mb 0.00 in0.0 mm 0.00 in0.0 mm 0.07 in1.8 mm
05:15 PM 87.6°F30.9°C 68.6°F20.3°C 53% 3.8 mph S6.1 kmh S 8.8 mph14.2 kmh 30.00 in1015.9 mb 0.00 in0.0 mm 0.00 in0.0 mm 0.07 in1.8 mm
05:20 PM 87.5°F30.8°C 68.8°F20.4°C 54% 3.2 mph SW5.1 kmh SW 7.5 mph12.1 kmh 30.00 in1015.9 mb 0.00 in0.0 mm 0.00 in0.0 mm 0.07 in1.8 mm
05:25 PM 87.5°F30.8°C 69.0°F20.6°C 54% 2.0 mph S3.2 kmh S 7.0 mph11.3 kmh 30.00 in1015.9 mb 0.00 in0.0 mm 0.00 in0.0 mm 0.07 in1.8 mm
05:30 PM 87.8°F31.0°C 68.0°F20.0°C 52% 2.4 mph WSW3.9 kmh WSW 6.3 mph10.1 kmh 30.00 in1015.9 mb 0.00 in0.0 mm 0.00 in0.0 mm 0.07 in1.8 mm
05:35 PM 87.6°F30.9°C 69.4°F20.8°C 55% 2.6 mph S4.2 kmh S 6.3 mph10.1 kmh 30.00 in1015.9 mb 0.00 in0.0 mm 0.00 in0.0 mm 0.07 in1.8 mm
05:40 PM 87.4°F30.8°C 68.2°F20.1°C 53% 4.6 mph S7.4 kmh S 8.8 mph14.2 kmh 30.00 in1015.9 mb 0.00 in0.0 mm 0.00 in0.0 mm 0.07 in1.8 mm
05:45 PM 87.5°F30.8°C 70.1°F21.2°C 56% 3.2 mph S5.1 kmh S 8.8 mph14.2 kmh 30.00 in1015.9 mb 0.00 in0.0 mm 0.00 in0.0 mm 0.07 in1.8 mm
05:50 PM 87.1°F30.6°C 69.2°F20.7°C 55% 2.6 mph SE4.2 kmh SE 8.0 mph12.9 kmh 30.00 in1015.9 mb 0.00 in0.0 mm 0.00 in0.0 mm 0.07 in1.8 mm
05:55 PM 87.0°F30.6°C 70.7°F21.5°C 58% 1.3 mph S2.1 kmh S 8.0 mph12.9 kmh 30.00 in1015.9 mb 0.00 in0.0 mm 0.00 in0.0 mm 0.07 in1.8 mm
06:00 PM 86.8°F30.4°C 69.5°F20.8°C 56% 3.0 mph S4.8 kmh S 7.0 mph11.3 kmh 30.00 in1015.9 mb 0.00 in0.0 mm 0.00 in0.0 mm 0.07 in1.8 mm
06:05 PM 86.4°F30.2°C 69.6°F20.9°C 57% 1.3 mph S2.1 kmh S 6.3 mph10.1 kmh 30.00 in1015.9 mb 0.00 in0.0 mm 0.00 in0.0 mm 0.07 in1.8 mm
06:10 PM 86.0°F30.0°C 69.2°F20.7°C 57% 4.4 mph SSW7.1 kmh SSW 7.5 mph12.1 kmh 30.00 in1015.9 mb 0.00 in0.0 mm 0.00 in0.0 mm 0.07 in1.8 mm
06:15 PM 85.7°F29.8°C 70.0°F21.1°C 59% 2.4 mph S3.9 kmh S 7.5 mph12.1 kmh 30.00 in1015.9 mb 0.00 in0.0 mm 0.00 in0.0 mm 0.07 in1.8 mm
06:20 PM 85.3°F29.6°C 70.1°F21.2°C 60% 2.2 mph S3.5 kmh S 7.0 mph11.3 kmh 30.00 in1015.9 mb 0.00 in0.0 mm 0.00 in0.0 mm 0.07 in1.8 mm
06:25 PM 85.1°F29.5°C 69.4°F20.8°C 59% 1.6 mph S2.6 kmh S 7.0 mph11.3 kmh 30.00 in1015.9 mb 0.00 in0.0 mm 0.00 in0.0 mm 0.07 in1.8 mm
06:30 PM 85.0°F29.4°C 69.3°F20.7°C 59% 3.0 mph SSW4.8 kmh SSW 6.3 mph10.1 kmh 30.00 in1015.9 mb 0.00 in0.0 mm 0.00 in0.0 mm 0.07 in1.8 mm
06:35 PM 84.9°F29.4°C 70.2°F21.2°C 61% 1.8 mph S2.9 kmh S 6.3 mph10.1 kmh 29.99 in1015.6 mb 0.00 in0.0 mm 0.00 in0.0 mm 0.07 in1.8 mm
06:40 PM 84.7°F29.3°C 71.0°F21.7°C 63% 1.9 mph S3.1 kmh S 5.0 mph8.0 kmh 29.99 in1015.6 mb 0.00 in0.0 mm 0.00 in0.0 mm 0.07 in1.8 mm
06:45 PM 84.5°F29.2°C 69.4°F20.8°C 60% 3.0 mph S4.8 kmh S 6.3 mph10.1 kmh 29.99 in1015.6 mb 0.00 in0.0 mm 0.00 in0.0 mm 0.07 in1.8 mm
06:50 PM 84.3°F29.1°C 70.6°F21.4°C 63% 1.3 mph S2.1 kmh S 6.3 mph10.1 kmh 29.99 in1015.6 mb 0.00 in0.0 mm 0.00 in0.0 mm 0.07 in1.8 mm
06:55 PM 84.0°F28.9°C 70.3°F21.3°C 63% 1.3 mph SE2.1 kmh SE 5.0 mph8.0 kmh 30.00 in1015.9 mb 0.00 in0.0 mm 0.00 in0.0 mm 0.07 in1.8 mm
07:00 PM 83.9°F28.8°C 70.2°F21.2°C 63% Calm Calm 5.0 mph8.0 kmh 30.00 in1015.9 mb 0.00 in0.0 mm 0.00 in0.0 mm 0.07 in1.8 mm
07:05 PM 83.7°F28.7°C 70.9°F21.6°C 65% 1.3 mph SE2.1 kmh SE 4.0 mph6.4 kmh 29.99 in1015.6 mb 0.00 in0.0 mm 0.00 in0.0 mm 0.07 in1.8 mm
07:10 PM 83.4°F28.6°C 71.1°F21.7°C 66% Calm Calm 2.5 mph4.0 kmh 30.00 in1015.9 mb 0.00 in0.0 mm 0.00 in0.0 mm 0.07 in1.8 mm
07:15 PM 83.1°F28.4°C 71.3°F21.8°C 67% Calm Calm 2.5 mph4.0 kmh 30.00 in1015.9 mb 0.00 in0.0 mm 0.00 in0.0 mm 0.07 in1.8 mm
07:20 PM 82.8°F28.2°C 71.4°F21.9°C 68% Calm Calm 2.0 mph3.2 kmh 30.00 in1015.9 mb 0.00 in0.0 mm 0.00 in0.0 mm 0.07 in1.8 mm
07:25 PM 82.4°F28.0°C 70.8°F21.6°C 68% Calm Calm 2.0 mph3.2 kmh 30.00 in1015.9 mb 0.00 in0.0 mm 0.00 in0.0 mm 0.07 in1.8 mm
07:30 PM 81.9°F27.7°C 71.6°F22.0°C 71% Calm Calm 1.0 mph1.6 kmh 29.99 in1015.6 mb 0.00 in0.0 mm 0.00 in0.0 mm 0.07 in1.8 mm
07:35 PM 81.4°F27.4°C 72.5°F22.5°C 74% 1.3 mph SE2.1 kmh SE 1.3 mph2.1 kmh 29.99 in1015.6 mb 0.00 in0.0 mm 0.00 in0.0 mm 0.07 in1.8 mm
07:40 PM 80.7°F27.1°C 72.6°F22.6°C 76% 1.3 mph SE2.1 kmh SE 1.3 mph2.1 kmh 29.99 in1015.6 mb 0.00 in0.0 mm 0.00 in0.0 mm 0.07 in1.8 mm
07:45 PM 80.3°F26.8°C 73.0°F22.8°C 78% Calm Calm 1.3 mph2.1 kmh 29.99 in1015.6 mb 0.00 in0.0 mm 0.00 in0.0 mm 0.07 in1.8 mm
07:50 PM 79.8°F26.6°C 72.8°F22.7°C 79% Calm Calm 1.0 mph1.6 kmh 30.00 in1015.9 mb 0.00 in0.0 mm 0.00 in0.0 mm 0.07 in1.8 mm
07:55 PM 79.5°F26.4°C 72.5°F22.5°C 79% Calm Calm 1.0 mph1.6 kmh 30.00 in1015.9 mb 0.00 in0.0 mm 0.00 in0.0 mm 0.07 in1.8 mm
08:00 PM 79.0°F26.1°C 72.3°F22.4°C 80% 1.3 mph SE2.1 kmh SE 1.3 mph2.1 kmh 29.99 in1015.6 mb 0.00 in0.0 mm 0.00 in0.0 mm 0.07 in1.8 mm
08:05 PM 78.7°F25.9°C 72.5°F22.5°C 81% Calm Calm 1.3 mph2.1 kmh 29.99 in1015.6 mb 0.00 in0.0 mm 0.00 in0.0 mm 0.07 in1.8 mm
08:10 PM 78.3°F25.7°C 72.4°F22.4°C 82% Calm Calm 1.3 mph2.1 kmh 30.00 in1015.9 mb 0.00 in0.0 mm 0.00 in0.0 mm 0.07 in1.8 mm
08:15 PM 77.9°F25.5°C 72.0°F22.2°C 82% Calm Calm 1.0 mph1.6 kmh 30.00 in1015.9 mb 0.00 in0.0 mm 0.00 in0.0 mm 0.07 in1.8 mm
08:21 PM 77.4°F25.2°C 71.9°F22.2°C 83% Calm Calm 1.0 mph1.6 kmh 30.00 in1015.9 mb 0.00 in0.0 mm 0.00 in0.0 mm 0.07 in1.8 mm
08:25 PM 77.0°F25.0°C 71.5°F21.9°C 83% Calm Calm 1.0 mph1.6 kmh 30.00 in1015.9 mb 0.00 in0.0 mm 0.00 in0.0 mm 0.07 in1.8 mm
08:31 PM 76.7°F24.8°C 71.6°F22.0°C 84% Calm Calm 1.0 mph1.6 kmh 30.00 in1015.9 mb 0.00 in0.0 mm 0.00 in0.0 mm 0.07 in1.8 mm
08:36 PM 76.3°F24.6°C 71.5°F21.9°C 85% Calm Calm -- 30.00 in1015.9 mb 0.00 in0.0 mm 0.00 in0.0 mm 0.07 in1.8 mm
08:41 PM 76.0°F24.4°C 71.2°F21.8°C 85% Calm Calm -- 30.00 in1015.9 mb 0.00 in0.0 mm 0.00 in0.0 mm 0.07 in1.8 mm
08:46 PM 75.6°F24.2°C 71.1°F21.7°C 86% Calm Calm -- 30.00 in1015.9 mb 0.00 in0.0 mm 0.00 in0.0 mm 0.07 in1.8 mm
08:51 PM 75.1°F23.9°C 70.7°F21.5°C 86% Calm Calm -- 30.01 in1016.3 mb 0.00 in0.0 mm 0.00 in0.0 mm 0.07 in1.8 mm
08:56 PM 74.6°F23.7°C 70.5°F21.4°C 87% Calm Calm -- 30.01 in1016.3 mb 0.00 in0.0 mm 0.00 in0.0 mm 0.07 in1.8 mm
09:01 PM 74.2°F23.4°C 70.4°F21.3°C 88% Calm Calm -- 30.01 in1016.3 mb 0.00 in0.0 mm 0.00 in0.0 mm 0.07 in1.8 mm
09:06 PM 74.0°F23.3°C 70.2°F21.2°C 88% Calm Calm -- 30.01 in1016.3 mb 0.00 in0.0 mm 0.00 in0.0 mm 0.07 in1.8 mm
09:11 PM 73.8°F23.2°C 70.0°F21.1°C 88% Calm Calm -- 30.01 in1016.3 mb 0.00 in0.0 mm 0.00 in0.0 mm 0.07 in1.8 mm
09:16 PM 73.6°F23.1°C 69.8°F21.0°C 88% Calm Calm -- 30.01 in1016.3 mb 0.00 in0.0 mm 0.00 in0.0 mm 0.07 in1.8 mm
09:21 PM 73.4°F23.0°C 69.6°F20.9°C 88% Calm Calm -- 30.01 in1016.3 mb 0.00 in0.0 mm 0.00 in0.0 mm 0.07 in1.8 mm
09:26 PM 73.2°F22.9°C 69.4°F20.8°C 88% Calm Calm -- 30.01 in1016.3 mb 0.00 in0.0 mm 0.00 in0.0 mm 0.07 in1.8 mm
09:31 PM 72.9°F22.7°C 69.5°F20.8°C 89% 1.3 mph SE2.1 kmh SE 1.3 mph2.1 kmh 30.02 in1016.6 mb 0.00 in0.0 mm 0.00 in0.0 mm 0.07 in1.8 mm
09:36 PM 72.7°F22.6°C 69.3°F20.7°C 89% Calm Calm 1.3 mph2.1 kmh 30.02 in1016.6 mb 0.00 in0.0 mm 0.00 in0.0 mm 0.07 in1.8 mm
09:41 PM 72.5°F22.5°C 69.4°F20.8°C 90% Calm Calm 1.3 mph2.1 kmh 30.02 in1016.6 mb 0.00 in0.0 mm 0.00 in0.0 mm 0.07 in1.8 mm
09:46 PM 72.4°F22.4°C 69.3°F20.7°C 90% Calm Calm 1.0 mph1.6 kmh 30.03 in1016.9 mb 0.00 in0.0 mm 0.00 in0.0 mm 0.07 in1.8 mm
09:51 PM 72.2°F22.3°C 69.1°F20.6°C 90% Calm Calm 1.0 mph1.6 kmh 30.03 in1016.9 mb 0.00 in0.0 mm 0.00 in0.0 mm 0.07 in1.8 mm
09:56 PM 72.1°F22.3°C 69.0°F20.6°C 90% Calm Calm -- 30.02 in1016.6 mb 0.00 in0.0 mm 0.00 in0.0 mm 0.07 in1.8 mm
10:01 PM 71.9°F22.2°C 68.8°F20.4°C 90% Calm Calm -- 30.03 in1016.9 mb 0.00 in0.0 mm 0.00 in0.0 mm 0.07 in1.8 mm
10:06 PM 71.7°F22.1°C 68.9°F20.5°C 91% Calm Calm -- 30.03 in1016.9 mb 0.00 in0.0 mm 0.00 in0.0 mm 0.07 in1.8 mm
10:11 PM 71.4°F21.9°C 68.6°F20.3°C 91% Calm Calm -- 30.03 in1016.9 mb 0.00 in0.0 mm 0.00 in0.0 mm 0.07 in1.8 mm
10:16 PM 71.2°F21.8°C 68.4°F20.2°C 91% Calm Calm -- 30.03 in1016.9 mb 0.00 in0.0 mm 0.00 in0.0 mm 0.07 in1.8 mm
10:21 PM 71.1°F21.7°C 68.3°F20.2°C 91% Calm Calm 1.3 mph2.1 kmh 30.03 in1016.9 mb 0.00 in0.0 mm 0.00 in0.0 mm 0.07 in1.8 mm
10:26 PM 71.0°F21.7°C 68.5°F20.3°C 92% Calm Calm 1.3 mph2.1 kmh 30.04 in1017.3 mb 0.00 in0.0 mm 0.00 in0.0 mm 0.07 in1.8 mm
10:31 PM 70.9°F21.6°C 68.4°F20.2°C 92% Calm Calm -- 30.04 in1017.3 mb 0.00 in0.0 mm 0.00 in0.0 mm 0.07 in1.8 mm
10:36 PM 70.8°F21.6°C 68.3°F20.2°C 92% Calm Calm -- 30.04 in1017.3 mb 0.00 in0.0 mm 0.00 in0.0 mm 0.07 in1.8 mm
10:41 PM 70.6°F21.4°C 68.1°F20.1°C 92% Calm Calm -- 30.04 in1017.3 mb 0.00 in0.0 mm 0.00 in0.0 mm 0.07 in1.8 mm
10:46 PM 70.5°F21.4°C 68.0°F20.0°C 92% Calm Calm -- 30.04 in1017.3 mb 0.00 in0.0 mm 0.00 in0.0 mm 0.07 in1.8 mm
10:51 PM 70.4°F21.3°C 68.2°F20.1°C 93% Calm Calm -- 30.04 in1017.3 mb 0.00 in0.0 mm 0.00 in0.0 mm 0.07 in1.8 mm
10:56 PM 70.3°F21.3°C 68.1°F20.1°C 93% Calm Calm -- 30.05 in1017.6 mb 0.00 in0.0 mm 0.00 in0.0 mm 0.07 in1.8 mm
11:01 PM 70.2°F21.2°C 68.1°F20.1°C 93% Calm Calm -- 30.04 in1017.3 mb 0.00 in0.0 mm 0.00 in0.0 mm 0.07 in1.8 mm
11:06 PM 70.0°F21.1°C 67.9°F19.9°C 93% Calm Calm -- 30.04 in1017.3 mb 0.00 in0.0 mm 0.00 in0.0 mm 0.07 in1.8 mm
11:11 PM 69.8°F21.0°C 67.7°F19.8°C 93% Calm Calm -- 30.04 in1017.3 mb 0.00 in0.0 mm 0.00 in0.0 mm 0.07 in1.8 mm
11:16 PM 69.7°F20.9°C 67.6°F19.8°C 93% Calm Calm -- 30.05 in1017.6 mb 0.00 in0.0 mm 0.00 in0.0 mm 0.07 in1.8 mm
11:21 PM 69.7°F20.9°C 67.6°F19.8°C 93% Calm Calm -- 30.05 in1017.6 mb 0.00 in0.0 mm 0.00 in0.0 mm 0.07 in1.8 mm
11:26 PM 69.6°F20.9°C 67.5°F19.7°C 93% Calm Calm -- 30.05 in1017.6 mb 0.00 in0.0 mm 0.00 in0.0 mm 0.07 in1.8 mm
11:31 PM 69.6°F20.9°C 67.8°F19.9°C 94% Calm Calm -- 30.05 in1017.6 mb 0.00 in0.0 mm 0.00 in0.0 mm 0.07 in1.8 mm
11:36 PM 69.6°F20.9°C 67.8°F19.9°C 94% Calm Calm -- 30.05 in1017.6 mb 0.00 in0.0 mm 0.00 in0.0 mm 0.07 in1.8 mm
11:41 PM 69.6°F20.9°C 67.8°F19.9°C 94% Calm Calm -- 30.05 in1017.6 mb 0.00 in0.0 mm 0.00 in0.0 mm 0.07 in1.8 mm
11:47 PM 69.5°F20.8°C 67.7°F19.8°C 94% Calm Calm -- 30.05 in1017.6 mb 0.00 in0.0 mm 0.00 in0.0 mm 0.07 in1.8 mm
11:52 PM 69.4°F20.8°C 67.6°F19.8°C 94% Calm Calm -- 30.05 in1017.6 mb 0.00 in0.0 mm 0.00 in0.0 mm 0.07 in1.8 mm
11:57 PM 69.3°F20.7°C 67.5°F19.7°C 94% Calm Calm -- 30.05 in1017.6 mb 0.00 in0.0 mm 0.00 in0.0 mm 0.07 in1.8 mm